sensor_id;sensor_type;location;lat;lon;timestamp;P1;durP1;ratioP1;P2;durP2;ratioP2
73454;SDS011;61690;51.824;6.306;2023-04-24T00:02:08;5.15;;;1.30;;
73454;SDS011;61690;51.824;6.306;2023-04-24T00:04:35;4.80;;;1.20;;
73454;SDS011;61690;51.824;6.306;2023-04-24T00:07:05;5.43;;;1.50;;
73454;SDS011;61690;51.824;6.306;2023-04-24T00:09:31;5.00;;;1.20;;
73454;SDS011;61690;51.824;6.306;2023-04-24T00:11:57;3.70;;;0.80;;
73454;SDS011;61690;51.824;6.306;2023-04-24T00:14:22;4.47;;;1.20;;
73454;SDS011;61690;51.824;6.306;2023-04-24T00:16:47;4.57;;;1.40;;
73454;SDS011;61690;51.824;6.306;2023-04-24T00:19:13;4.47;;;1.27;;
73454;SDS011;61690;51.824;6.306;2023-04-24T00:21:38;5.50;;;1.20;;
73454;SDS011;61690;51.824;6.306;2023-04-24T00:24:04;4.28;;;1.20;;
73454;SDS011;61690;51.824;6.306;2023-04-24T00:26:30;4.53;;;1.47;;
73454;SDS011;61690;51.824;6.306;2023-04-24T00:28:55;4.13;;;1.40;;
73454;SDS011;61690;51.824;6.306;2023-04-24T00:31:20;5.40;;;1.33;;
73454;SDS011;61690;51.824;6.306;2023-04-24T00:33:46;4.00;;;1.30;;
73454;SDS011;61690;51.824;6.306;2023-04-24T00:36:14;5.00;;;1.30;;
73454;SDS011;61690;51.824;6.306;2023-04-24T00:38:39;5.07;;;1.50;;
73454;SDS011;61690;51.824;6.306;2023-04-24T00:41:05;4.60;;;1.50;;
73454;SDS011;61690;51.824;6.306;2023-04-24T00:43:31;7.83;;;1.57;;
73454;SDS011;61690;51.824;6.306;2023-04-24T00:45:56;5.27;;;1.40;;
73454;SDS011;61690;51.824;6.306;2023-04-24T00:48:22;5.63;;;1.15;;
73454;SDS011;61690;51.824;6.306;2023-04-24T00:50:48;5.20;;;1.50;;
73454;SDS011;61690;51.824;6.306;2023-04-24T00:53:14;4.90;;;1.40;;
73454;SDS011;61690;51.824;6.306;2023-04-24T00:55:39;4.40;;;1.37;;
73454;SDS011;61690;51.824;6.306;2023-04-24T00:58:05;3.97;;;1.30;;
73454;SDS011;61690;51.824;6.306;2023-04-24T01:00:31;4.20;;;1.40;;
73454;SDS011;61690;51.824;6.306;2023-04-24T01:02:57;4.43;;;1.13;;
73454;SDS011;61690;51.824;6.306;2023-04-24T01:05:24;4.97;;;1.42;;
73454;SDS011;61690;51.824;6.306;2023-04-24T01:07:49;4.87;;;1.50;;
73454;SDS011;61690;51.824;6.306;2023-04-24T01:10:15;4.50;;;1.23;;
73454;SDS011;61690;51.824;6.306;2023-04-24T01:12:42;4.57;;;1.35;;
73454;SDS011;61690;51.824;6.306;2023-04-24T01:15:08;4.37;;;1.23;;
73454;SDS011;61690;51.824;6.306;2023-04-24T01:17:33;3.87;;;1.20;;
73454;SDS011;61690;51.824;6.306;2023-04-24T01:19:59;4.78;;;1.30;;
73454;SDS011;61690;51.824;6.306;2023-04-24T01:22:25;4.63;;;1.20;;
73454;SDS011;61690;51.824;6.306;2023-04-24T01:24:51;4.32;;;1.20;;
73454;SDS011;61690;51.824;6.306;2023-04-24T01:27:18;4.30;;;1.20;;
73454;SDS011;61690;51.824;6.306;2023-04-24T01:29:44;4.43;;;1.38;;
73454;SDS011;61690;51.824;6.306;2023-04-24T01:32:09;4.13;;;1.30;;
73454;SDS011;61690;51.824;6.306;2023-04-24T01:34:35;4.75;;;1.35;;
73454;SDS011;61690;51.824;6.306;2023-04-24T01:37:02;4.32;;;1.50;;
73454;SDS011;61690;51.824;6.306;2023-04-24T01:39:28;4.13;;;1.20;;
73454;SDS011;61690;51.824;6.306;2023-04-24T01:41:53;5.87;;;1.40;;
73454;SDS011;61690;51.824;6.306;2023-04-24T01:44:20;4.50;;;1.10;;
73454;SDS011;61690;51.824;6.306;2023-04-24T01:46:45;4.63;;;1.23;;
73454;SDS011;61690;51.824;6.306;2023-04-24T01:49:11;5.10;;;1.30;;
73454;SDS011;61690;51.824;6.306;2023-04-24T01:51:36;5.47;;;1.50;;
73454;SDS011;61690;51.824;6.306;2023-04-24T01:54:01;3.80;;;1.10;;
73454;SDS011;61690;51.824;6.306;2023-04-24T01:56:28;4.90;;;1.40;;
73454;SDS011;61690;51.824;6.306;2023-04-24T01:58:54;5.53;;;1.40;;
73454;SDS011;61690;51.824;6.306;2023-04-24T02:01:21;4.07;;;1.20;;
73454;SDS011;61690;51.824;6.306;2023-04-24T02:03:46;4.77;;;1.20;;
73454;SDS011;61690;51.824;6.306;2023-04-24T02:06:11;4.60;;;1.30;;
73454;SDS011;61690;51.824;6.306;2023-04-24T02:08:37;4.18;;;1.40;;
73454;SDS011;61690;51.824;6.306;2023-04-24T02:11:02;4.07;;;1.30;;
73454;SDS011;61690;51.824;6.306;2023-04-24T02:13:28;4.77;;;1.40;;
73454;SDS011;61690;51.824;6.306;2023-04-24T02:15:53;3.53;;;1.07;;
73454;SDS011;61690;51.824;6.306;2023-04-24T02:18:19;4.83;;;1.33;;
73454;SDS011;61690;51.824;6.306;2023-04-24T02:20:44;4.32;;;1.20;;
73454;SDS011;61690;51.824;6.306;2023-04-24T02:23:10;3.87;;;1.20;;
73454;SDS011;61690;51.824;6.306;2023-04-24T02:25:35;4.77;;;1.40;;
73454;SDS011;61690;51.824;6.306;2023-04-24T02:28:00;3.97;;;1.03;;
73454;SDS011;61690;51.824;6.306;2023-04-24T02:30:26;4.43;;;1.20;;
73454;SDS011;61690;51.824;6.306;2023-04-24T02:32:51;4.37;;;1.30;;
73454;SDS011;61690;51.824;6.306;2023-04-24T02:35:16;4.40;;;1.40;;
73454;SDS011;61690;51.824;6.306;2023-04-24T02:37:42;4.30;;;1.40;;
73454;SDS011;61690;51.824;6.306;2023-04-24T02:40:07;5.27;;;1.43;;
73454;SDS011;61690;51.824;6.306;2023-04-24T02:42:33;4.05;;;1.20;;
73454;SDS011;61690;51.824;6.306;2023-04-24T02:44:59;5.23;;;1.40;;
73454;SDS011;61690;51.824;6.306;2023-04-24T02:47:24;5.10;;;1.42;;
73454;SDS011;61690;51.824;6.306;2023-04-24T02:49:49;4.73;;;1.30;;
73454;SDS011;61690;51.824;6.306;2023-04-24T02:52:15;4.73;;;1.30;;
73454;SDS011;61690;51.824;6.306;2023-04-24T02:54:40;6.73;;;1.40;;
73454;SDS011;61690;51.824;6.306;2023-04-24T02:57:05;4.60;;;1.20;;
73454;SDS011;61690;51.824;6.306;2023-04-24T02:59:31;4.07;;;1.17;;
73454;SDS011;61690;51.824;6.306;2023-04-24T03:01:56;4.60;;;1.40;;
73454;SDS011;61690;51.824;6.306;2023-04-24T03:04:22;3.80;;;1.00;;
73454;SDS011;61690;51.824;6.306;2023-04-24T03:06:47;4.57;;;1.50;;
73454;SDS011;61690;51.824;6.306;2023-04-24T03:09:13;3.93;;;1.20;;
73454;SDS011;61690;51.824;6.306;2023-04-24T03:11:38;5.80;;;1.20;;
73454;SDS011;61690;51.824;6.306;2023-04-24T03:14:03;3.83;;;1.30;;
73454;SDS011;61690;51.824;6.306;2023-04-24T03:16:29;4.30;;;1.23;;
73454;SDS011;61690;51.824;6.306;2023-04-24T03:18:54;3.73;;;1.23;;
73454;SDS011;61690;51.824;6.306;2023-04-24T03:21:19;4.57;;;1.40;;
73454;SDS011;61690;51.824;6.306;2023-04-24T03:23:45;4.13;;;1.37;;
73454;SDS011;61690;51.824;6.306;2023-04-24T03:26:10;4.13;;;1.30;;
73454;SDS011;61690;51.824;6.306;2023-04-24T03:28:35;4.30;;;1.30;;
73454;SDS011;61690;51.824;6.306;2023-04-24T03:31:01;3.97;;;1.20;;
73454;SDS011;61690;51.824;6.306;2023-04-24T03:33:28;4.72;;;1.27;;
73454;SDS011;61690;51.824;6.306;2023-04-24T03:35:53;4.00;;;1.30;;
73454;SDS011;61690;51.824;6.306;2023-04-24T03:38:18;4.13;;;1.50;;
73454;SDS011;61690;51.824;6.306;2023-04-24T03:40:43;4.20;;;1.10;;
73454;SDS011;61690;51.824;6.306;2023-04-24T03:43:09;4.57;;;1.40;;
73454;SDS011;61690;51.824;6.306;2023-04-24T03:45:34;4.40;;;1.40;;
73454;SDS011;61690;51.824;6.306;2023-04-24T03:47:59;3.57;;;1.10;;
73454;SDS011;61690;51.824;6.306;2023-04-24T03:50:24;3.80;;;1.17;;
73454;SDS011;61690;51.824;6.306;2023-04-24T03:52:51;4.27;;;1.50;;
73454;SDS011;61690;51.824;6.306;2023-04-24T03:55:17;4.30;;;1.40;;
73454;SDS011;61690;51.824;6.306;2023-04-24T03:57:42;4.43;;;1.40;;
73454;SDS011;61690;51.824;6.306;2023-04-24T04:00:07;3.60;;;1.30;;
73454;SDS011;61690;51.824;6.306;2023-04-24T04:02:34;4.15;;;1.30;;
73454;SDS011;61690;51.824;6.306;2023-04-24T04:04:59;4.37;;;1.40;;
73454;SDS011;61690;51.824;6.306;2023-04-24T04:07:24;4.10;;;1.30;;
73454;SDS011;61690;51.824;6.306;2023-04-24T04:09:50;4.32;;;1.38;;
73454;SDS011;61690;51.824;6.306;2023-04-24T04:12:16;4.37;;;1.50;;
73454;SDS011;61690;51.824;6.306;2023-04-24T04:14:41;3.93;;;1.00;;
73454;SDS011;61690;51.824;6.306;2023-04-24T04:17:06;4.13;;;1.47;;
73454;SDS011;61690;51.824;6.306;2023-04-24T04:19:31;4.73;;;1.30;;
73454;SDS011;61690;51.824;6.306;2023-04-24T04:21:57;4.13;;;1.43;;
73454;SDS011;61690;51.824;6.306;2023-04-24T04:24:22;3.92;;;1.35;;
73454;SDS011;61690;51.824;6.306;2023-04-24T04:26:49;3.70;;;1.13;;
73454;SDS011;61690;51.824;6.306;2023-04-24T04:29:15;3.72;;;1.20;;
73454;SDS011;61690;51.824;6.306;2023-04-24T04:31:41;4.35;;;1.40;;
73454;SDS011;61690;51.824;6.306;2023-04-24T04:34:06;3.83;;;1.30;;
73454;SDS011;61690;51.824;6.306;2023-04-24T04:36:32;4.20;;;1.30;;
73454;SDS011;61690;51.824;6.306;2023-04-24T04:39:02;4.68;;;1.30;;
73454;SDS011;61690;51.824;6.306;2023-04-24T04:41:27;3.90;;;1.33;;
73454;SDS011;61690;51.824;6.306;2023-04-24T04:43:53;4.57;;;1.30;;
73454;SDS011;61690;51.824;6.306;2023-04-24T04:46:18;3.93;;;1.30;;
73454;SDS011;61690;51.824;6.306;2023-04-24T04:48:43;5.85;;;1.30;;
73454;SDS011;61690;51.824;6.306;2023-04-24T04:51:09;4.67;;;1.30;;
73454;SDS011;61690;51.824;6.306;2023-04-24T04:53:34;4.17;;;1.40;;
73454;SDS011;61690;51.824;6.306;2023-04-24T04:56:00;4.07;;;1.30;;
73454;SDS011;61690;51.824;6.306;2023-04-24T04:58:25;4.72;;;1.40;;
73454;SDS011;61690;51.824;6.306;2023-04-24T05:00:51;4.97;;;1.30;;
73454;SDS011;61690;51.824;6.306;2023-04-24T05:03:17;3.97;;;1.30;;
73454;SDS011;61690;51.824;6.306;2023-04-24T05:05:42;5.07;;;1.30;;
73454;SDS011;61690;51.824;6.306;2023-04-24T05:08:08;4.70;;;1.20;;
73454;SDS011;61690;51.824;6.306;2023-04-24T05:10:33;4.40;;;1.30;;
73454;SDS011;61690;51.824;6.306;2023-04-24T05:12:59;4.97;;;1.33;;
73454;SDS011;61690;51.824;6.306;2023-04-24T05:15:25;4.25;;;1.10;;
73454;SDS011;61690;51.824;6.306;2023-04-24T05:17:51;4.50;;;1.50;;
73454;SDS011;61690;51.824;6.306;2023-04-24T05:20:16;5.40;;;1.60;;
73454;SDS011;61690;51.824;6.306;2023-04-24T05:22:42;5.63;;;1.60;;
73454;SDS011;61690;51.824;6.306;2023-04-24T05:25:08;5.33;;;1.47;;
73454;SDS011;61690;51.824;6.306;2023-04-24T05:27:33;7.47;;;1.40;;
73454;SDS011;61690;51.824;6.306;2023-04-24T05:29:58;6.00;;;1.40;;
73454;SDS011;61690;51.824;6.306;2023-04-24T05:32:24;6.27;;;1.70;;
73454;SDS011;61690;51.824;6.306;2023-04-24T05:34:49;6.90;;;1.40;;
73454;SDS011;61690;51.824;6.306;2023-04-24T05:37:15;4.40;;;1.20;;
73454;SDS011;61690;51.824;6.306;2023-04-24T05:39:40;4.90;;;1.73;;
73454;SDS011;61690;51.824;6.306;2023-04-24T05:42:06;4.93;;;1.60;;
73454;SDS011;61690;51.824;6.306;2023-04-24T05:44:32;5.85;;;1.75;;
73454;SDS011;61690;51.824;6.306;2023-04-24T05:46:57;7.10;;;1.80;;
73454;SDS011;61690;51.824;6.306;2023-04-24T05:49:22;4.10;;;1.67;;
73454;SDS011;61690;51.824;6.306;2023-04-24T05:51:48;6.20;;;1.60;;
73454;SDS011;61690;51.824;6.306;2023-04-24T05:54:13;13.63;;;1.90;;
73454;SDS011;61690;51.824;6.306;2023-04-24T05:56:39;6.83;;;2.00;;
73454;SDS011;61690;51.824;6.306;2023-04-24T05:59:04;4.70;;;1.60;;
73454;SDS011;61690;51.824;6.306;2023-04-24T06:01:30;5.37;;;1.53;;
73454;SDS011;61690;51.824;6.306;2023-04-24T06:03:56;7.10;;;1.80;;
73454;SDS011;61690;51.824;6.306;2023-04-24T06:06:21;4.70;;;1.80;;
73454;SDS011;61690;51.824;6.306;2023-04-24T06:08:47;5.10;;;1.70;;
73454;SDS011;61690;51.824;6.306;2023-04-24T06:11:12;8.40;;;1.93;;
73454;SDS011;61690;51.824;6.306;2023-04-24T06:13:37;7.23;;;2.07;;
73454;SDS011;61690;51.824;6.306;2023-04-24T06:16:03;7.87;;;1.97;;
73454;SDS011;61690;51.824;6.306;2023-04-24T06:18:28;6.43;;;1.70;;
73454;SDS011;61690;51.824;6.306;2023-04-24T06:20:53;6.10;;;1.60;;
73454;SDS011;61690;51.824;6.306;2023-04-24T06:23:20;7.72;;;2.13;;
73454;SDS011;61690;51.824;6.306;2023-04-24T06:25:45;6.40;;;1.70;;
73454;SDS011;61690;51.824;6.306;2023-04-24T06:28:10;6.70;;;1.90;;
73454;SDS011;61690;51.824;6.306;2023-04-24T06:30:36;5.53;;;1.70;;
73454;SDS011;61690;51.824;6.306;2023-04-24T06:33:01;7.60;;;1.70;;
73454;SDS011;61690;51.824;6.306;2023-04-24T06:35:26;6.40;;;1.70;;
73454;SDS011;61690;51.824;6.306;2023-04-24T06:37:51;4.53;;;1.30;;
73454;SDS011;61690;51.824;6.306;2023-04-24T06:40:17;6.10;;;1.73;;
73454;SDS011;61690;51.824;6.306;2023-04-24T06:42:43;7.22;;;1.50;;
73454;SDS011;61690;51.824;6.306;2023-04-24T06:45:09;6.13;;;1.80;;
73454;SDS011;61690;51.824;6.306;2023-04-24T06:47:34;8.67;;;2.00;;
73454;SDS011;61690;51.824;6.306;2023-04-24T06:50:00;6.67;;;2.10;;
73454;SDS011;61690;51.824;6.306;2023-04-24T06:52:25;11.27;;;2.10;;
73454;SDS011;61690;51.824;6.306;2023-04-24T06:54:50;7.73;;;1.97;;
73454;SDS011;61690;51.824;6.306;2023-04-24T06:57:17;7.80;;;1.80;;
73454;SDS011;61690;51.824;6.306;2023-04-24T06:59:42;9.00;;;2.03;;
73454;SDS011;61690;51.824;6.306;2023-04-24T07:02:08;8.77;;;1.90;;
73454;SDS011;61690;51.824;6.306;2023-04-24T07:04:33;8.90;;;2.00;;
73454;SDS011;61690;51.824;6.306;2023-04-24T07:06:58;11.73;;;2.00;;
73454;SDS011;61690;51.824;6.306;2023-04-24T07:09:24;8.87;;;2.07;;
73454;SDS011;61690;51.824;6.306;2023-04-24T07:11:51;9.30;;;1.90;;
73454;SDS011;61690;51.824;6.306;2023-04-24T07:14:17;8.82;;;1.67;;
73454;SDS011;61690;51.824;6.306;2023-04-24T07:16:43;8.15;;;1.80;;
73454;SDS011;61690;51.824;6.306;2023-04-24T07:19:09;6.67;;;2.13;;
73454;SDS011;61690;51.824;6.306;2023-04-24T07:21:34;6.70;;;1.60;;
73454;SDS011;61690;51.824;6.306;2023-04-24T07:24:00;10.87;;;1.97;;
73454;SDS011;61690;51.824;6.306;2023-04-24T07:26:26;9.30;;;2.20;;
73454;SDS011;61690;51.824;6.306;2023-04-24T07:28:53;6.50;;;1.80;;
73454;SDS011;61690;51.824;6.306;2023-04-24T07:31:18;7.57;;;1.90;;
73454;SDS011;61690;51.824;6.306;2023-04-24T07:33:43;6.67;;;1.80;;
73454;SDS011;61690;51.824;6.306;2023-04-24T07:36:09;7.97;;;2.00;;
73454;SDS011;61690;51.824;6.306;2023-04-24T07:38:40;10.60;;;2.00;;
73454;SDS011;61690;51.824;6.306;2023-04-24T07:41:06;7.90;;;1.93;;
73454;SDS011;61690;51.824;6.306;2023-04-24T07:43:31;6.20;;;1.93;;
73454;SDS011;61690;51.824;6.306;2023-04-24T07:45:56;6.40;;;1.83;;
73454;SDS011;61690;51.824;6.306;2023-04-24T07:48:22;7.77;;;1.77;;
73454;SDS011;61690;51.824;6.306;2023-04-24T07:50:47;6.23;;;1.80;;
73454;SDS011;61690;51.824;6.306;2023-04-24T07:53:12;6.47;;;1.90;;
73454;SDS011;61690;51.824;6.306;2023-04-24T07:55:38;8.03;;;1.90;;
73454;SDS011;61690;51.824;6.306;2023-04-24T07:58:03;5.73;;;1.67;;
73454;SDS011;61690;51.824;6.306;2023-04-24T08:00:29;5.95;;;1.90;;
73454;SDS011;61690;51.824;6.306;2023-04-24T08:02:54;6.53;;;1.90;;
73454;SDS011;61690;51.824;6.306;2023-04-24T08:05:19;6.40;;;1.87;;
73454;SDS011;61690;51.824;6.306;2023-04-24T08:07:45;4.40;;;1.90;;
73454;SDS011;61690;51.824;6.306;2023-04-24T08:10:13;6.78;;;2.10;;
73454;SDS011;61690;51.824;6.306;2023-04-24T08:12:39;8.73;;;1.90;;
73454;SDS011;61690;51.824;6.306;2023-04-24T08:15:05;6.20;;;1.92;;
73454;SDS011;61690;51.824;6.306;2023-04-24T08:17:31;5.93;;;1.85;;
73454;SDS011;61690;51.824;6.306;2023-04-24T08:19:56;5.13;;;1.80;;
73454;SDS011;61690;51.824;6.306;2023-04-24T08:22:26;5.85;;;1.90;;
73454;SDS011;61690;51.824;6.306;2023-04-24T08:24:52;8.02;;;1.80;;
73454;SDS011;61690;51.824;6.306;2023-04-24T08:27:17;6.53;;;1.70;;
73454;SDS011;61690;51.824;6.306;2023-04-24T08:29:43;5.83;;;1.60;;
73454;SDS011;61690;51.824;6.306;2023-04-24T08:32:08;5.77;;;1.87;;
73454;SDS011;61690;51.824;6.306;2023-04-24T08:34:33;6.37;;;1.70;;
73454;SDS011;61690;51.824;6.306;2023-04-24T08:36:59;5.87;;;1.70;;
73454;SDS011;61690;51.824;6.306;2023-04-24T08:39:24;6.90;;;1.80;;
73454;SDS011;61690;51.824;6.306;2023-04-24T08:41:49;5.90;;;1.80;;
73454;SDS011;61690;51.824;6.306;2023-04-24T08:44:15;7.63;;;1.90;;
73454;SDS011;61690;51.824;6.306;2023-04-24T08:46:43;5.40;;;1.60;;
73454;SDS011;61690;51.824;6.306;2023-04-24T08:49:13;5.82;;;1.80;;
73454;SDS011;61690;51.824;6.306;2023-04-24T08:51:43;4.93;;;1.70;;
73454;SDS011;61690;51.824;6.306;2023-04-24T08:54:09;5.73;;;1.90;;
73454;SDS011;61690;51.824;6.306;2023-04-24T08:56:36;4.90;;;1.50;;
73454;SDS011;61690;51.824;6.306;2023-04-24T08:59:04;8.43;;;1.98;;
73454;SDS011;61690;51.824;6.306;2023-04-24T09:01:31;5.70;;;1.70;;
73454;SDS011;61690;51.824;6.306;2023-04-24T09:03:58;6.75;;;1.70;;
73454;SDS011;61690;51.824;6.306;2023-04-24T09:06:28;4.97;;;1.60;;
73454;SDS011;61690;51.824;6.306;2023-04-24T09:08:55;5.82;;;1.65;;
73454;SDS011;61690;51.824;6.306;2023-04-24T09:11:25;6.05;;;1.65;;
73454;SDS011;61690;51.824;6.306;2023-04-24T09:13:51;4.60;;;1.70;;
73454;SDS011;61690;51.824;6.306;2023-04-24T09:16:18;5.40;;;1.73;;
73454;SDS011;61690;51.824;6.306;2023-04-24T09:18:45;5.17;;;1.70;;
73454;SDS011;61690;51.824;6.306;2023-04-24T09:21:10;6.72;;;1.77;;
73454;SDS011;61690;51.824;6.306;2023-04-24T09:23:36;5.03;;;1.70;;
73454;SDS011;61690;51.824;6.306;2023-04-24T09:26:02;6.00;;;1.93;;
73454;SDS011;61690;51.824;6.306;2023-04-24T09:28:31;5.60;;;1.70;;
73454;SDS011;61690;51.824;6.306;2023-04-24T09:31:13;4.15;;;1.73;;
73454;SDS011;61690;51.824;6.306;2023-04-24T09:34:04;4.90;;;1.80;;
73454;SDS011;61690;51.824;6.306;2023-04-24T09:36:33;7.13;;;1.73;;
73454;SDS011;61690;51.824;6.306;2023-04-24T09:39:02;5.17;;;1.93;;
73454;SDS011;61690;51.824;6.306;2023-04-24T09:41:29;4.47;;;1.45;;
73454;SDS011;61690;51.824;6.306;2023-04-24T09:43:55;6.32;;;1.45;;
73454;SDS011;61690;51.824;6.306;2023-04-24T09:46:21;4.80;;;1.90;;
73454;SDS011;61690;51.824;6.306;2023-04-24T09:48:53;5.20;;;1.65;;
73454;SDS011;61690;51.824;6.306;2023-04-24T09:51:19;5.73;;;1.80;;
73454;SDS011;61690;51.824;6.306;2023-04-24T09:53:58;5.38;;;1.80;;
73454;SDS011;61690;51.824;6.306;2023-04-24T09:56:24;6.20;;;2.17;;
73454;SDS011;61690;51.824;6.306;2023-04-24T09:58:51;4.87;;;1.60;;
73454;SDS011;61690;51.824;6.306;2023-04-24T10:01:16;3.97;;;1.57;;
73454;SDS011;61690;51.824;6.306;2023-04-24T10:03:55;5.95;;;1.77;;
73454;SDS011;61690;51.824;6.306;2023-04-24T10:06:20;5.78;;;1.60;;
73454;SDS011;61690;51.824;6.306;2023-04-24T10:08:46;4.60;;;1.60;;
73454;SDS011;61690;51.824;6.306;2023-04-24T10:11:13;4.90;;;1.70;;
73454;SDS011;61690;51.824;6.306;2023-04-24T10:13:39;4.22;;;1.50;;
73454;SDS011;61690;51.824;6.306;2023-04-24T10:16:05;5.07;;;1.50;;
73454;SDS011;61690;51.824;6.306;2023-04-24T10:18:32;5.40;;;1.60;;
73454;SDS011;61690;51.824;6.306;2023-04-24T10:20:59;5.38;;;1.92;;
73454;SDS011;61690;51.824;6.306;2023-04-24T10:23:25;4.65;;;1.60;;
73454;SDS011;61690;51.824;6.306;2023-04-24T10:25:50;3.93;;;1.30;;
73454;SDS011;61690;51.824;6.306;2023-04-24T10:28:17;4.03;;;1.60;;
73454;SDS011;61690;51.824;6.306;2023-04-24T10:30:44;5.38;;;1.63;;
73454;SDS011;61690;51.824;6.306;2023-04-24T10:33:11;5.00;;;1.60;;
73454;SDS011;61690;51.824;6.306;2023-04-24T10:35:39;5.47;;;1.80;;
73454;SDS011;61690;51.824;6.306;2023-04-24T10:38:14;4.50;;;1.60;;
73454;SDS011;61690;51.824;6.306;2023-04-24T10:40:43;5.78;;;1.60;;
73454;SDS011;61690;51.824;6.306;2023-04-24T10:43:09;5.68;;;1.60;;
73454;SDS011;61690;51.824;6.306;2023-04-24T10:45:36;4.28;;;1.60;;
73454;SDS011;61690;51.824;6.306;2023-04-24T10:48:06;3.83;;;1.40;;
73454;SDS011;61690;51.824;6.306;2023-04-24T10:50:45;4.45;;;1.55;;
73454;SDS011;61690;51.824;6.306;2023-04-24T10:53:16;4.60;;;1.60;;
73454;SDS011;61690;51.824;6.306;2023-04-24T10:55:51;5.22;;;1.60;;
73454;SDS011;61690;51.824;6.306;2023-04-24T10:58:22;5.88;;;1.70;;
73454;SDS011;61690;51.824;6.306;2023-04-24T11:00:55;4.37;;;1.70;;
73454;SDS011;61690;51.824;6.306;2023-04-24T11:03:26;4.40;;;1.80;;
73454;SDS011;61690;51.824;6.306;2023-04-24T11:05:55;4.00;;;1.60;;
73454;SDS011;61690;51.824;6.306;2023-04-24T11:10:55;5.22;;;1.58;;
73454;SDS011;61690;51.824;6.306;2023-04-24T11:13:24;5.67;;;1.57;;
73454;SDS011;61690;51.824;6.306;2023-04-24T11:18:45;4.82;;;1.38;;
73454;SDS011;61690;51.824;6.306;2023-04-24T11:21:18;5.05;;;1.60;;
73454;SDS011;61690;51.824;6.306;2023-04-24T11:23:44;4.00;;;1.53;;
73454;SDS011;61690;51.824;6.306;2023-04-24T11:26:21;4.35;;;1.58;;
73454;SDS011;61690;51.824;6.306;2023-04-24T11:28:50;5.47;;;1.60;;
73454;SDS011;61690;51.824;6.306;2023-04-24T11:31:37;4.10;;;1.50;;
73454;SDS011;61690;51.824;6.306;2023-04-24T11:34:07;5.47;;;1.80;;
73454;SDS011;61690;51.824;6.306;2023-04-24T11:36:34;6.43;;;1.60;;
73454;SDS011;61690;51.824;6.306;2023-04-24T11:39:00;4.45;;;1.73;;
73454;SDS011;61690;51.824;6.306;2023-04-24T11:41:26;5.78;;;1.67;;
73454;SDS011;61690;51.824;6.306;2023-04-24T11:43:53;5.43;;;1.50;;
73454;SDS011;61690;51.824;6.306;2023-04-24T11:46:20;5.07;;;1.50;;
73454;SDS011;61690;51.824;6.306;2023-04-24T11:48:46;4.38;;;1.73;;
73454;SDS011;61690;51.824;6.306;2023-04-24T11:51:12;3.90;;;1.60;;
73454;SDS011;61690;51.824;6.306;2023-04-24T11:53:38;4.03;;;1.63;;
73454;SDS011;61690;51.824;6.306;2023-04-24T11:56:03;4.40;;;1.63;;
73454;SDS011;61690;51.824;6.306;2023-04-24T11:58:34;5.18;;;1.63;;
73454;SDS011;61690;51.824;6.306;2023-04-24T12:01:00;5.60;;;1.50;;
73454;SDS011;61690;51.824;6.306;2023-04-24T12:03:26;5.38;;;1.40;;
73454;SDS011;61690;51.824;6.306;2023-04-24T12:05:51;4.03;;;1.43;;
73454;SDS011;61690;51.824;6.306;2023-04-24T12:08:29;4.77;;;1.50;;
73454;SDS011;61690;51.824;6.306;2023-04-24T12:10:54;6.45;;;1.60;;
73454;SDS011;61690;51.824;6.306;2023-04-24T12:13:19;4.20;;;1.30;;
73454;SDS011;61690;51.824;6.306;2023-04-24T12:15:45;4.23;;;1.50;;
73454;SDS011;61690;51.824;6.306;2023-04-24T12:18:11;4.00;;;1.50;;
73454;SDS011;61690;51.824;6.306;2023-04-24T12:20:37;4.75;;;1.60;;
73454;SDS011;61690;51.824;6.306;2023-04-24T12:23:03;4.87;;;1.30;;
73454;SDS011;61690;51.824;6.306;2023-04-24T12:25:29;3.93;;;1.40;;
73454;SDS011;61690;51.824;6.306;2023-04-24T12:30:31;4.03;;;1.45;;
73454;SDS011;61690;51.824;6.306;2023-04-24T12:32:58;5.00;;;1.63;;
73454;SDS011;61690;51.824;6.306;2023-04-24T12:35:26;4.03;;;1.50;;
73454;SDS011;61690;51.824;6.306;2023-04-24T12:37:53;4.40;;;1.30;;
73454;SDS011;61690;51.824;6.306;2023-04-24T12:40:19;4.53;;;1.40;;
73454;SDS011;61690;51.824;6.306;2023-04-24T12:42:49;4.18;;;1.20;;
73454;SDS011;61690;51.824;6.306;2023-04-24T12:45:16;3.75;;;1.50;;
73454;SDS011;61690;51.824;6.306;2023-04-24T12:47:43;4.27;;;1.47;;
73454;SDS011;61690;51.824;6.306;2023-04-24T12:50:10;4.03;;;1.23;;
73454;SDS011;61690;51.824;6.306;2023-04-24T12:52:38;6.13;;;1.70;;
73454;SDS011;61690;51.824;6.306;2023-04-24T12:55:04;4.68;;;1.60;;
73454;SDS011;61690;51.824;6.306;2023-04-24T12:57:33;4.38;;;1.52;;
73454;SDS011;61690;51.824;6.306;2023-04-24T12:59:59;4.20;;;1.40;;
73454;SDS011;61690;51.824;6.306;2023-04-24T13:02:27;4.07;;;1.52;;
73454;SDS011;61690;51.824;6.306;2023-04-24T13:04:55;5.47;;;1.65;;
73454;SDS011;61690;51.824;6.306;2023-04-24T13:07:20;4.40;;;1.30;;
73454;SDS011;61690;51.824;6.306;2023-04-24T13:09:46;7.37;;;1.77;;
73454;SDS011;61690;51.824;6.306;2023-04-24T13:12:13;4.65;;;1.73;;
73454;SDS011;61690;51.824;6.306;2023-04-24T13:14:39;6.13;;;1.60;;
73454;SDS011;61690;51.824;6.306;2023-04-24T13:17:05;5.53;;;1.60;;
73454;SDS011;61690;51.824;6.306;2023-04-24T13:19:34;4.43;;;1.40;;
73454;SDS011;61690;51.824;6.306;2023-04-24T13:22:04;6.87;;;1.80;;
73454;SDS011;61690;51.824;6.306;2023-04-24T13:24:29;4.63;;;1.67;;
73454;SDS011;61690;51.824;6.306;2023-04-24T13:26:56;4.80;;;1.30;;
73454;SDS011;61690;51.824;6.306;2023-04-24T13:29:21;6.13;;;1.50;;
73454;SDS011;61690;51.824;6.306;2023-04-24T13:31:47;4.80;;;1.40;;
73454;SDS011;61690;51.824;6.306;2023-04-24T13:34:13;4.73;;;1.50;;
73454;SDS011;61690;51.824;6.306;2023-04-24T13:36:38;4.57;;;1.30;;
73454;SDS011;61690;51.824;6.306;2023-04-24T13:39:04;5.90;;;1.45;;
73454;SDS011;61690;51.824;6.306;2023-04-24T13:41:30;4.15;;;1.40;;
73454;SDS011;61690;51.824;6.306;2023-04-24T13:43:57;8.33;;;1.40;;
73454;SDS011;61690;51.824;6.306;2023-04-24T13:46:23;4.28;;;1.33;;
73454;SDS011;61690;51.824;6.306;2023-04-24T13:48:48;4.37;;;1.70;;
73454;SDS011;61690;51.824;6.306;2023-04-24T13:51:13;6.23;;;1.70;;
73454;SDS011;61690;51.824;6.306;2023-04-24T13:53:39;4.90;;;1.40;;
73454;SDS011;61690;51.824;6.306;2023-04-24T13:56:04;5.27;;;1.50;;
73454;SDS011;61690;51.824;6.306;2023-04-24T13:58:31;4.40;;;1.50;;
73454;SDS011;61690;51.824;6.306;2023-04-24T14:00:57;4.20;;;1.50;;
73454;SDS011;61690;51.824;6.306;2023-04-24T14:03:22;5.10;;;1.80;;
73454;SDS011;61690;51.824;6.306;2023-04-24T14:05:47;5.67;;;1.50;;
73454;SDS011;61690;51.824;6.306;2023-04-24T14:08:13;5.18;;;1.50;;
73454;SDS011;61690;51.824;6.306;2023-04-24T14:10:38;4.50;;;1.20;;
73454;SDS011;61690;51.824;6.306;2023-04-24T14:13:03;3.90;;;1.37;;
73454;SDS011;61690;51.824;6.306;2023-04-24T14:15:29;4.80;;;1.50;;
73454;SDS011;61690;51.824;6.306;2023-04-24T14:17:54;6.37;;;1.23;;
73454;SDS011;61690;51.824;6.306;2023-04-24T14:20:19;3.93;;;1.37;;
73454;SDS011;61690;51.824;6.306;2023-04-24T14:22:45;4.77;;;1.50;;
73454;SDS011;61690;51.824;6.306;2023-04-24T14:25:10;4.47;;;1.43;;
73454;SDS011;61690;51.824;6.306;2023-04-24T14:27:36;5.47;;;1.47;;
73454;SDS011;61690;51.824;6.306;2023-04-24T14:30:01;4.20;;;1.47;;
73454;SDS011;61690;51.824;6.306;2023-04-24T14:32:26;4.10;;;1.70;;
73454;SDS011;61690;51.824;6.306;2023-04-24T14:34:52;6.37;;;1.50;;
73454;SDS011;61690;51.824;6.306;2023-04-24T14:37:17;4.07;;;1.40;;
73454;SDS011;61690;51.824;6.306;2023-04-24T14:39:43;4.70;;;1.40;;
73454;SDS011;61690;51.824;6.306;2023-04-24T14:42:08;4.37;;;1.50;;
73454;SDS011;61690;51.824;6.306;2023-04-24T14:44:33;4.13;;;1.40;;
73454;SDS011;61690;51.824;6.306;2023-04-24T14:46:59;5.50;;;1.57;;
73454;SDS011;61690;51.824;6.306;2023-04-24T14:49:24;4.88;;;1.63;;
73454;SDS011;61690;51.824;6.306;2023-04-24T14:51:50;6.57;;;1.50;;